createdAt,value
2023-12-12T00:02:16.746Z,9.27
2023-12-12T00:04:43.987Z,9.26
2023-12-12T00:07:11.104Z,9.24
2023-12-12T00:09:38.140Z,9.21
2023-12-12T00:12:05.552Z,9.18
2023-12-12T00:14:33.741Z,9.18
2023-12-12T00:17:00.634Z,9.15
2023-12-12T00:19:27.520Z,9.14
2023-12-12T00:21:54.401Z,9.13
2023-12-12T00:24:21.374Z,9.11
2023-12-12T00:26:49.099Z,9.10
2023-12-12T00:29:15.991Z,9.08
2023-12-12T00:31:44.227Z,9.07
2023-12-12T00:34:11.409Z,9.08
2023-12-12T00:36:38.356Z,9.07
2023-12-12T00:39:05.254Z,9.06
2023-12-12T00:41:33.744Z,9.04
2023-12-12T00:44:00.564Z,9.03
2023-12-12T00:46:27.809Z,9.03
2023-12-12T00:48:56.433Z,9.02
2023-12-12T00:51:23.344Z,9.02
2023-12-12T00:53:51.224Z,9.03
2023-12-12T00:56:18.152Z,9.01
2023-12-12T00:58:45.135Z,9.00
2023-12-12T01:01:12.194Z,8.98
2023-12-12T01:03:39.792Z,8.95
2023-12-12T01:06:08.595Z,8.93
2023-12-12T01:08:35.662Z,8.92
2023-12-12T01:11:02.588Z,8.91
2023-12-12T01:13:29.670Z,8.90
2023-12-12T01:15:56.682Z,8.87
2023-12-12T01:18:23.719Z,8.86
2023-12-12T01:20:50.615Z,8.83
2023-12-12T01:23:18.844Z,8.83
2023-12-12T01:25:45.692Z,8.82
2023-12-12T01:28:12.980Z,8.81
2023-12-12T01:30:40.244Z,8.78
2023-12-12T01:33:07.253Z,8.77
2023-12-12T01:35:34.282Z,8.76
2023-12-12T01:38:01.315Z,8.70
2023-12-12T01:40:29.693Z,8.69
2023-12-12T01:43:05.104Z,8.64
2023-12-12T01:45:31.968Z,8.62
2023-12-12T01:47:59.184Z,8.59
2023-12-12T01:50:26.393Z,8.57
2023-12-12T01:52:53.507Z,8.54
2023-12-12T01:55:20.770Z,8.50
2023-12-12T01:57:49.237Z,8.48
2023-12-12T02:00:16.441Z,8.46
2023-12-12T02:02:43.347Z,8.42
2023-12-12T02:05:10.645Z,8.37
2023-12-12T02:07:38.864Z,8.33
2023-12-12T02:10:06.375Z,8.30
2023-12-12T02:12:33.865Z,8.26
2023-12-12T02:15:02.244Z,8.20
2023-12-12T02:17:29.528Z,8.13
2023-12-12T02:19:58.406Z,8.06
2023-12-12T02:22:26.858Z,7.97
2023-12-12T02:24:54.309Z,7.91
2023-12-12T02:27:21.256Z,7.84
2023-12-12T02:29:48.759Z,7.77
2023-12-12T02:32:17.781Z,7.71
2023-12-12T02:34:44.986Z,7.67
2023-12-12T02:37:11.998Z,7.64
2023-12-12T02:39:42.863Z,7.58
2023-12-12T02:42:09.861Z,7.50
2023-12-12T02:44:36.946Z,7.45
2023-12-12T02:47:03.892Z,7.40
2023-12-12T02:49:30.897Z,7.35
2023-12-12T02:51:57.893Z,7.30
2023-12-12T02:54:24.702Z,7.24
2023-12-12T02:56:52.995Z,7.18
2023-12-12T02:59:19.810Z,7.13
2023-12-12T03:01:48.399Z,7.09
2023-12-12T03:04:15.538Z,7.05
2023-12-12T03:06:42.450Z,7.01
2023-12-12T03:09:09.357Z,6.97
2023-12-12T03:11:36.201Z,6.93
2023-12-12T03:14:04.390Z,6.91
2023-12-12T03:16:31.221Z,6.88
2023-12-12T03:18:58.242Z,6.82
2023-12-12T03:21:25.276Z,6.78
2023-12-12T03:23:52.264Z,6.75
2023-12-12T03:26:19.206Z,6.67
2023-12-12T03:28:46.087Z,6.62
2023-12-12T03:31:14.563Z,6.59
2023-12-12T03:33:41.479Z,6.55
2023-12-12T03:36:09.349Z,6.51
2023-12-12T03:38:36.208Z,6.46
2023-12-12T03:41:03.319Z,6.40
2023-12-12T03:43:30.285Z,6.37
2023-12-12T03:45:57.616Z,6.35
2023-12-12T03:48:25.906Z,6.33
2023-12-12T03:50:52.948Z,6.33
2023-12-12T03:53:19.787Z,6.32
2023-12-12T03:55:46.639Z,6.29
2023-12-12T03:58:13.912Z,6.24
2023-12-12T04:00:41.052Z,6.20
2023-12-12T04:03:08.283Z,6.17
2023-12-12T04:05:36.737Z,6.14
2023-12-12T04:08:03.568Z,6.12
2023-12-12T04:10:30.420Z,6.09
2023-12-12T04:12:58.283Z,6.08
2023-12-12T04:15:25.254Z,6.05
2023-12-12T04:17:52.136Z,6.02
2023-12-12T04:20:19.342Z,6.01
2023-12-12T04:22:47.673Z,6.01
2023-12-12T04:25:15.106Z,6.01
2023-12-12T04:27:43.382Z,6.04
2023-12-12T04:30:11.289Z,6.06
2023-12-12T04:32:38.152Z,6.09
2023-12-12T04:35:07.391Z,6.11
2023-12-12T04:37:34.577Z,6.14
2023-12-12T04:40:03.087Z,6.17
2023-12-12T04:42:30.253Z,6.20
2023-12-12T04:44:57.073Z,6.21
2023-12-12T04:47:24.750Z,6.22
2023-12-12T04:49:52.691Z,6.25
2023-12-12T04:52:19.711Z,6.27
2023-12-12T04:54:46.546Z,6.29
2023-12-12T04:57:14.894Z,6.33
2023-12-12T04:59:41.778Z,6.34
2023-12-12T05:02:08.805Z,6.35
2023-12-12T05:04:37.110Z,6.35
2023-12-12T05:07:04.359Z,6.35
2023-12-12T05:09:32.436Z,6.36
2023-12-12T05:11:59.620Z,6.35
2023-12-12T05:14:27.823Z,6.36
2023-12-12T05:17:01.435Z,6.38
2023-12-12T05:19:34.564Z,6.37
2023-12-12T05:22:01.479Z,6.36
2023-12-12T05:24:28.264Z,6.35
2023-12-12T05:26:55.149Z,6.32
2023-12-12T05:29:21.992Z,6.29
2023-12-12T05:31:50.452Z,6.27
2023-12-12T05:34:17.489Z,6.25
2023-12-12T05:36:44.402Z,6.21
2023-12-12T05:39:11.425Z,6.20
2023-12-12T05:41:38.497Z,6.18
2023-12-12T05:44:07.004Z,6.13
2023-12-12T05:46:35.005Z,6.12
2023-12-12T05:49:04.360Z,6.13
2023-12-12T05:51:31.573Z,6.14
2023-12-12T05:53:58.662Z,6.11
2023-12-12T05:56:25.701Z,6.08
2023-12-12T05:58:52.943Z,6.05
2023-12-12T06:01:19.992Z,6.02
2023-12-12T06:03:47.058Z,5.98
2023-12-12T06:06:15.489Z,5.97
2023-12-12T06:08:42.937Z,6.00
2023-12-12T06:11:09.845Z,6.02
2023-12-12T06:13:37.148Z,6.01
2023-12-12T06:16:04.458Z,5.97
2023-12-12T06:18:31.786Z,5.95
2023-12-12T06:20:58.628Z,5.94
2023-12-12T06:23:27.008Z,5.95
2023-12-12T06:25:55.199Z,5.95
2023-12-12T06:28:22.134Z,5.96
2023-12-12T06:30:49.084Z,6.00
2023-12-12T06:33:18.027Z,6.03
2023-12-12T06:35:44.904Z,6.07
2023-12-12T06:38:11.855Z,6.09
2023-12-12T06:40:40.368Z,6.14
2023-12-12T06:43:07.291Z,6.19
2023-12-12T06:45:34.429Z,6.22
2023-12-12T06:48:01.550Z,6.25
2023-12-12T06:50:28.396Z,6.29
2023-12-12T06:52:55.971Z,6.31
2023-12-12T06:55:23.802Z,6.35
2023-12-12T06:57:52.049Z,6.38
2023-12-12T07:00:21.160Z,6.42
2023-12-12T07:02:47.987Z,6.44
2023-12-12T07:05:16.605Z,6.48
2023-12-12T07:07:45.057Z,6.48
2023-12-12T07:10:12.755Z,6.53
2023-12-12T07:12:39.760Z,6.55
2023-12-12T07:15:08.632Z,6.58
2023-12-12T07:17:35.800Z,6.62
2023-12-12T07:20:03.579Z,6.65
2023-12-12T07:22:32.081Z,6.68
2023-12-12T07:24:58.984Z,6.73
2023-12-12T07:27:26.896Z,6.75
2023-12-12T07:29:54.118Z,6.77
2023-12-12T07:32:22.602Z,6.81
2023-12-12T07:34:49.547Z,6.83
2023-12-12T07:37:16.506Z,6.86
2023-12-12T07:39:43.433Z,6.89
2023-12-12T07:42:11.072Z,6.90
2023-12-12T07:44:38.034Z,6.93
2023-12-12T07:47:05.291Z,6.95
2023-12-12T07:49:33.717Z,6.97
2023-12-12T07:52:00.881Z,7.00
2023-12-12T07:54:27.752Z,7.02
2023-12-12T07:56:55.438Z,7.04
2023-12-12T07:59:22.526Z,7.05
2023-12-12T08:01:49.617Z,7.08
2023-12-12T08:04:16.919Z,7.10
2023-12-12T08:06:45.358Z,7.14
2023-12-12T08:09:12.216Z,7.16
2023-12-12T08:11:39.286Z,7.20
2023-12-12T08:14:06.284Z,7.22
2023-12-12T08:16:33.399Z,7.26
2023-12-12T08:19:02.954Z,7.28
2023-12-12T08:21:30.707Z,7.30
2023-12-12T08:23:58.905Z,7.34
2023-12-12T08:26:25.762Z,7.36
2023-12-12T08:28:52.685Z,7.40
2023-12-12T08:31:19.550Z,7.44
2023-12-12T08:33:46.516Z,7.46
2023-12-12T08:36:13.560Z,7.49
2023-12-12T08:38:40.438Z,7.52
2023-12-12T08:41:11.258Z,7.55
2023-12-12T08:43:41.225Z,7.57
2023-12-12T08:46:08.179Z,7.60
2023-12-12T08:48:35.177Z,7.63
2023-12-12T08:51:02.216Z,7.66
2023-12-12T08:53:29.040Z,7.68
2023-12-12T08:55:57.279Z,7.72
2023-12-12T08:58:26.847Z,7.75
2023-12-12T09:00:57.082Z,7.78
2023-12-12T09:03:23.998Z,7.80
2023-12-12T09:05:50.926Z,7.84
2023-12-12T09:08:18.075Z,7.86
2023-12-12T09:10:44.968Z,7.90
2023-12-12T09:13:12.021Z,7.93
2023-12-12T09:15:40.246Z,7.96
2023-12-12T09:18:16.765Z,7.99
2023-12-12T09:20:47.710Z,8.02
2023-12-12T09:23:14.767Z,8.03
2023-12-12T09:25:41.590Z,8.06
2023-12-12T09:28:08.488Z,8.08
2023-12-12T09:30:35.438Z,8.10
2023-12-12T09:33:04.006Z,8.12
2023-12-12T09:35:31.021Z,8.14
2023-12-12T09:37:57.953Z,8.16
2023-12-12T09:40:24.861Z,8.19
2023-12-12T09:42:53.743Z,8.21
2023-12-12T09:45:23.748Z,8.22
2023-12-12T09:47:52.353Z,8.27
2023-12-12T09:50:21.045Z,8.30
2023-12-12T09:52:50.332Z,8.33
2023-12-12T09:55:20.445Z,8.36
2023-12-12T09:57:47.605Z,8.39
2023-12-12T10:00:15.856Z,8.41
2023-12-12T10:02:43.241Z,8.44
2023-12-12T10:05:12.056Z,8.48
2023-12-12T10:07:44.012Z,8.51
2023-12-12T10:10:13.918Z,8.54
2023-12-12T10:12:41.310Z,8.57
2023-12-12T10:15:23.510Z,8.60
2023-12-12T10:17:56.323Z,8.63
2023-12-12T10:20:26.637Z,8.65
2023-12-12T10:22:58.392Z,8.69
2023-12-12T10:25:26.016Z,8.72
2023-12-12T10:27:57.145Z,8.75
2023-12-12T10:30:24.401Z,8.78
2023-12-12T10:32:54.937Z,8.82
2023-12-12T10:35:23.253Z,8.86
2023-12-12T10:37:50.280Z,8.91
2023-12-12T10:40:23.621Z,8.94
2023-12-12T10:42:52.170Z,8.96
2023-12-12T10:45:22.265Z,9.00
2023-12-12T10:47:51.954Z,9.04
2023-12-12T10:50:20.453Z,9.08
2023-12-12T10:52:51.090Z,9.12
2023-12-12T10:55:20.900Z,9.16
2023-12-12T10:57:48.843Z,9.19
2023-12-12T11:00:19.571Z,9.22
2023-12-12T11:02:48.816Z,9.25
2023-12-12T11:05:16.760Z,9.28
2023-12-12T11:07:49.642Z,9.32
2023-12-12T11:10:23.146Z,9.37
2023-12-12T11:12:53.608Z,9.40
2023-12-12T11:15:21.757Z,9.43
2023-12-12T11:17:48.995Z,9.48
2023-12-12T11:20:17.369Z,9.51
2023-12-12T11:22:46.337Z,9.55
2023-12-12T11:25:17.607Z,9.58
2023-12-12T11:27:52.079Z,9.62
2023-12-12T11:30:20.899Z,9.64
2023-12-12T11:32:48.892Z,9.66
2023-12-12T11:35:27.320Z,9.71
2023-12-12T11:37:55.468Z,9.75
2023-12-12T11:40:24.831Z,9.81
2023-12-12T11:42:55.904Z,9.85
2023-12-12T11:45:33.449Z,9.88
2023-12-12T11:48:04.925Z,9.92
2023-12-12T11:50:33.078Z,9.96
2023-12-12T11:53:02.681Z,9.99
2023-12-12T11:55:32.537Z,10.01
2023-12-12T11:58:02.877Z,10.04
2023-12-12T12:00:34.502Z,10.07
2023-12-12T12:03:02.253Z,10.11
2023-12-12T12:05:29.273Z,10.13
2023-12-12T12:07:59.504Z,10.17
2023-12-12T12:10:26.865Z,10.19
2023-12-12T12:12:58.469Z,10.22
2023-12-12T12:15:28.173Z,10.27
2023-12-12T12:17:55.714Z,10.29
2023-12-12T12:20:22.816Z,10.31
2023-12-12T12:22:49.973Z,10.35
2023-12-12T12:25:22.371Z,10.39
2023-12-12T12:27:52.977Z,10.44
2023-12-12T12:30:20.842Z,10.47
2023-12-12T12:33:02.763Z,10.52
2023-12-12T12:35:30.150Z,10.56
2023-12-12T12:37:58.810Z,10.60
2023-12-12T12:40:34.805Z,10.65
2023-12-12T12:43:06.379Z,10.68
2023-12-12T12:45:34.270Z,10.72
2023-12-12T12:48:09.038Z,10.77
2023-12-12T12:50:35.992Z,10.80
2023-12-12T12:53:04.791Z,10.83
2023-12-12T12:55:32.219Z,10.86
2023-12-12T12:57:59.284Z,10.89
2023-12-12T13:00:27.644Z,10.91
2023-12-12T13:02:55.425Z,10.93
2023-12-12T13:05:24.350Z,10.94
2023-12-12T13:07:51.261Z,10.96
2023-12-12T13:10:18.734Z,10.97
2023-12-12T13:12:45.977Z,10.99
2023-12-12T13:15:13.196Z,10.99
2023-12-12T13:17:40.703Z,11.00
2023-12-12T13:20:11.927Z,11.02
2023-12-12T13:22:42.095Z,11.01
2023-12-12T13:25:10.285Z,11.01
2023-12-12T13:27:39.852Z,11.01
2023-12-12T13:30:11.794Z,11.01
2023-12-12T13:32:39.816Z,10.99
2023-12-12T13:35:18.244Z,10.96
2023-12-12T13:37:55.648Z,10.92
2023-12-12T13:40:24.636Z,10.91
2023-12-12T13:42:52.195Z,10.89
2023-12-12T13:45:20.201Z,10.86
2023-12-12T13:47:48.908Z,10.86
2023-12-12T13:50:16.656Z,10.86
2023-12-12T13:52:44.124Z,10.85
2023-12-12T13:55:12.509Z,10.82
2023-12-12T13:57:39.430Z,10.82
2023-12-12T14:00:10.422Z,10.83
2023-12-12T14:02:38.086Z,10.82
2023-12-12T14:05:06.374Z,10.83
2023-12-12T14:07:34.530Z,10.86
2023-12-12T14:10:02.312Z,10.85
2023-12-12T14:12:30.895Z,10.85
2023-12-12T14:14:58.225Z,10.86
2023-12-12T14:17:25.149Z,10.85
2023-12-12T14:19:52.186Z,10.85
2023-12-12T14:22:19.994Z,10.82
2023-12-12T14:24:47.839Z,10.81
2023-12-12T14:27:14.630Z,10.80
2023-12-12T14:29:43.845Z,10.80
2023-12-12T14:32:11.299Z,10.80
2023-12-12T14:34:38.596Z,10.78
2023-12-12T14:37:05.849Z,10.79
2023-12-12T14:39:32.696Z,10.79
2023-12-12T14:42:00.230Z,10.78
2023-12-12T14:44:27.031Z,10.77
2023-12-12T14:46:55.879Z,10.78
2023-12-12T14:49:23.598Z,10.76
2023-12-12T14:51:52.893Z,10.76
2023-12-12T14:54:19.807Z,10.77
2023-12-12T14:56:46.682Z,10.76
2023-12-12T14:59:13.962Z,10.76
2023-12-12T15:01:40.897Z,10.76
2023-12-12T15:04:09.293Z,10.76
2023-12-12T15:06:36.415Z,10.76
2023-12-12T15:09:05.095Z,10.78
2023-12-12T15:11:32.544Z,10.78
2023-12-12T15:13:59.531Z,10.77
2023-12-12T15:16:26.869Z,10.76
2023-12-12T15:18:53.835Z,10.74
2023-12-12T15:21:25.663Z,10.74
2023-12-12T15:23:53.161Z,10.73
2023-12-12T15:26:20.490Z,10.72
2023-12-12T15:28:47.556Z,10.71
2023-12-12T15:31:14.519Z,10.70
2023-12-12T15:33:42.926Z,10.69
2023-12-12T15:36:10.946Z,10.69
2023-12-12T15:38:41.586Z,10.68
2023-12-12T15:41:08.374Z,10.67
2023-12-12T15:43:35.728Z,10.66
2023-12-12T15:46:02.901Z,10.66
2023-12-12T15:48:30.790Z,10.66
2023-12-12T15:50:57.749Z,10.64
2023-12-12T15:53:25.080Z,10.62
2023-12-12T15:55:53.382Z,10.59
2023-12-12T15:58:21.190Z,10.58
2023-12-12T16:00:48.505Z,10.60
2023-12-12T16:03:15.468Z,10.60
2023-12-12T16:05:43.683Z,10.58
2023-12-12T16:08:13.341Z,10.58
2023-12-12T16:10:40.750Z,10.59
2023-12-12T16:13:09.111Z,10.60
2023-12-12T16:15:39.080Z,10.60
2023-12-12T16:18:06.052Z,10.61
2023-12-12T16:20:32.939Z,10.60
2023-12-12T16:22:59.863Z,10.60
2023-12-12T16:25:27.311Z,10.59
2023-12-12T16:27:55.256Z,10.59
2023-12-12T16:30:24.028Z,10.59
2023-12-12T16:32:55.528Z,10.58
2023-12-12T16:35:24.625Z,10.59
2023-12-12T16:37:53.547Z,10.62
2023-12-12T16:40:20.676Z,10.63
2023-12-12T16:42:47.743Z,10.64
2023-12-12T16:45:16.723Z,10.64
2023-12-12T16:47:45.619Z,10.65
2023-12-12T16:50:12.796Z,10.65
2023-12-12T16:52:39.952Z,10.65
2023-12-12T16:55:08.175Z,10.65
2023-12-12T16:57:37.137Z,10.66
2023-12-12T17:00:09.249Z,10.66
2023-12-12T17:02:36.376Z,10.65
2023-12-12T17:05:08.143Z,10.66
2023-12-12T17:07:35.574Z,10.66
2023-12-12T17:10:08.091Z,10.65
2023-12-12T17:12:35.369Z,10.65
2023-12-12T17:15:02.330Z,10.64
2023-12-12T17:17:31.454Z,10.61
2023-12-12T17:19:58.838Z,10.60
2023-12-12T17:22:27.156Z,10.62
2023-12-12T17:24:54.647Z,10.63
2023-12-12T17:27:21.791Z,10.62
2023-12-12T17:29:48.547Z,10.62
2023-12-12T17:32:15.638Z,10.58
2023-12-12T17:34:47.368Z,10.59
2023-12-12T17:37:14.399Z,10.59
2023-12-12T17:39:45.958Z,10.57
2023-12-12T17:42:12.814Z,10.56
2023-12-12T17:44:40.570Z,10.57
2023-12-12T17:47:07.527Z,10.55
2023-12-12T17:49:34.536Z,10.55
2023-12-12T17:52:02.102Z,10.54
2023-12-12T17:54:28.929Z,10.55
2023-12-12T17:56:57.123Z,10.54
2023-12-12T17:59:24.143Z,10.54
2023-12-12T18:01:51.220Z,10.53
2023-12-12T18:04:18.235Z,10.53
2023-12-12T18:06:45.138Z,10.51
2023-12-12T18:09:12.044Z,10.51
2023-12-12T18:11:39.287Z,10.52
2023-12-12T18:14:07.607Z,10.50
2023-12-12T18:16:35.116Z,10.50
2023-12-12T18:19:04.871Z,10.50
2023-12-12T18:21:33.099Z,10.48
2023-12-12T18:24:00.082Z,10.46
2023-12-12T18:26:30.037Z,10.43
2023-12-12T18:29:01.650Z,10.41
2023-12-12T18:31:31.446Z,10.39
2023-12-12T18:33:59.121Z,10.37
2023-12-12T18:36:26.365Z,10.34
2023-12-12T18:38:53.438Z,10.32
2023-12-12T18:41:21.774Z,10.29
2023-12-12T18:43:49.055Z,10.24
2023-12-12T18:46:17.032Z,10.22
2023-12-12T18:48:45.472Z,10.18
2023-12-12T18:51:13.307Z,10.16
2023-12-12T18:53:40.755Z,10.16
2023-12-12T18:56:10.389Z,10.16
2023-12-12T18:58:37.445Z,10.15
2023-12-12T19:01:05.638Z,10.15
2023-12-12T19:03:34.358Z,10.14
2023-12-12T19:06:04.888Z,10.15
2023-12-12T19:08:32.452Z,10.14
2023-12-12T19:10:59.359Z,10.11
2023-12-12T19:13:29.833Z,10.10
2023-12-12T19:15:58.163Z,10.08
2023-12-12T19:18:25.359Z,10.07
2023-12-12T19:20:52.249Z,10.04
2023-12-12T19:23:20.663Z,10.02
2023-12-12T19:25:47.523Z,10.02
2023-12-12T19:28:14.526Z,10.01
2023-12-12T19:30:41.535Z,9.98
2023-12-12T19:33:08.618Z,9.98
2023-12-12T19:35:38.918Z,9.95
2023-12-12T19:38:07.444Z,9.94
2023-12-12T19:40:37.576Z,9.93
2023-12-12T19:43:04.769Z,9.92
2023-12-12T19:45:31.784Z,9.92
2023-12-12T19:47:59.260Z,9.92
2023-12-12T19:50:26.285Z,9.91
2023-12-12T19:52:53.944Z,9.89
2023-12-12T19:55:21.001Z,9.89
2023-12-12T19:57:49.183Z,9.87
2023-12-12T20:00:16.616Z,9.86
2023-12-12T20:02:43.348Z,9.88
2023-12-12T20:05:10.295Z,9.88
2023-12-12T20:07:39.312Z,9.87
2023-12-12T20:10:07.592Z,9.87
2023-12-12T20:12:34.610Z,9.87
2023-12-12T20:15:04.251Z,9.86
2023-12-12T20:17:31.261Z,9.84
2023-12-12T20:19:58.314Z,9.82
2023-12-12T20:22:25.433Z,9.80
2023-12-12T20:24:52.757Z,9.79
2023-12-12T20:27:19.741Z,9.76
2023-12-12T20:29:47.886Z,9.75
2023-12-12T20:32:17.381Z,9.72
2023-12-12T20:34:44.624Z,9.72
2023-12-12T20:37:11.647Z,9.73
2023-12-12T20:39:38.560Z,9.72
2023-12-12T20:42:06.130Z,9.71
2023-12-12T20:44:32.960Z,9.72
2023-12-12T20:46:59.894Z,9.72
2023-12-12T20:49:28.228Z,9.71
2023-12-12T20:51:58.240Z,9.70
2023-12-12T20:54:26.434Z,9.71
2023-12-12T20:56:54.306Z,9.72
2023-12-12T20:59:21.509Z,9.73
2023-12-12T21:01:48.679Z,9.75
2023-12-12T21:04:16.834Z,9.76
2023-12-12T21:06:45.189Z,9.78
2023-12-12T21:09:15.691Z,9.78
2023-12-12T21:11:43.068Z,9.79
2023-12-12T21:14:11.125Z,9.80
2023-12-12T21:16:37.985Z,9.82
2023-12-12T21:19:05.446Z,9.82
2023-12-12T21:21:32.273Z,9.86
2023-12-12T21:24:00.767Z,9.88
2023-12-12T21:26:27.664Z,9.90
2023-12-12T21:28:54.582Z,9.93
2023-12-12T21:31:22.964Z,9.93
2023-12-12T21:33:49.954Z,9.93
2023-12-12T21:36:17.224Z,9.95
2023-12-12T21:38:46.225Z,9.94
2023-12-12T21:41:15.398Z,9.93
2023-12-12T21:43:43.447Z,9.93
2023-12-12T21:46:10.994Z,9.92
2023-12-12T21:48:37.926Z,9.90
2023-12-12T21:51:05.680Z,9.90
2023-12-12T21:53:34.308Z,9.90
2023-12-12T21:56:02.977Z,9.89
2023-12-12T21:58:31.185Z,9.88
2023-12-12T22:00:58.008Z,9.87
2023-12-12T22:03:24.883Z,9.87
2023-12-12T22:05:52.016Z,9.87
2023-12-12T22:08:18.962Z,9.88
2023-12-12T22:10:46.289Z,9.86
2023-12-12T22:13:16.661Z,9.87
2023-12-12T22:15:45.059Z,9.88
2023-12-12T22:18:14.485Z,9.88
2023-12-12T22:20:41.626Z,9.89
2023-12-12T22:23:08.634Z,9.89
2023-12-12T22:25:35.534Z,9.89
2023-12-12T22:28:02.756Z,9.90
2023-12-12T22:30:29.696Z,9.90
2023-12-12T22:32:58.088Z,9.91
2023-12-12T22:35:25.428Z,9.92
2023-12-12T22:37:52.544Z,9.91
2023-12-12T22:40:19.442Z,9.90
2023-12-12T22:42:46.245Z,9.90
2023-12-12T22:45:13.112Z,9.89
2023-12-12T22:47:40.029Z,9.90
2023-12-12T22:50:09.403Z,9.89
2023-12-12T22:52:36.285Z,9.88
2023-12-12T22:55:03.393Z,9.88
2023-12-12T22:57:30.445Z,9.89
2023-12-12T22:59:57.499Z,9.87
2023-12-12T23:02:24.297Z,9.87
2023-12-12T23:04:51.354Z,9.87
2023-12-12T23:07:19.685Z,9.86
2023-12-12T23:09:46.555Z,9.86
2023-12-12T23:12:13.425Z,9.87
2023-12-12T23:14:40.241Z,9.86
2023-12-12T23:17:07.129Z,9.85
2023-12-12T23:19:34.031Z,9.84
2023-12-12T23:22:00.969Z,9.85
2023-12-12T23:24:31.558Z,9.83
2023-12-12T23:26:58.679Z,9.82
2023-12-12T23:29:25.546Z,9.85
2023-12-12T23:31:52.437Z,9.85
2023-12-12T23:34:19.471Z,9.83
2023-12-12T23:36:46.429Z,9.82
2023-12-12T23:39:13.390Z,9.82
2023-12-12T23:41:53.827Z,9.81
2023-12-12T23:44:22.905Z,9.78
2023-12-12T23:46:51.666Z,9.79
2023-12-12T23:49:18.662Z,9.77
2023-12-12T23:51:45.564Z,9.74
2023-12-12T23:54:12.478Z,9.74
2023-12-12T23:56:39.341Z,9.73
2023-12-12T23:59:07.737Z,9.73
